createdAt,value
2022-12-15T00:00:02.063Z,17.17
2022-12-15T00:02:47.481Z,17.17
2022-12-15T00:05:32.985Z,17.17
2022-12-15T00:08:25.011Z,17.22
2022-12-15T00:11:10.485Z,17.23
2022-12-15T00:13:55.891Z,17.23
2022-12-15T00:16:42.618Z,17.22
2022-12-15T00:19:28.001Z,17.22
2022-12-15T00:22:13.441Z,17.21
2022-12-15T00:24:58.978Z,17.25
2022-12-15T00:27:44.450Z,17.23
2022-12-15T00:30:30.447Z,17.20
2022-12-15T00:33:25.286Z,17.18
2022-12-15T00:36:10.704Z,17.17
2022-12-15T00:38:44.921Z,17.15
2022-12-15T00:41:13.315Z,17.14
2022-12-15T00:43:41.253Z,17.13
2022-12-15T00:46:26.902Z,17.12
2022-12-15T00:48:56.731Z,17.11
2022-12-15T00:51:42.357Z,17.11
2022-12-15T00:54:27.881Z,17.13
2022-12-15T00:57:13.305Z,17.12
2022-12-15T00:59:58.885Z,17.07
2022-12-15T01:02:44.557Z,17.06
2022-12-15T01:05:31.441Z,17.05
2022-12-15T01:08:17.868Z,17.05
2022-12-15T01:11:03.436Z,17.09
2022-12-15T01:13:50.010Z,17.11
2022-12-15T01:16:35.987Z,17.13
2022-12-15T01:19:21.594Z,17.14
2022-12-15T01:21:51.056Z,17.12
2022-12-15T01:24:19.299Z,17.11
2022-12-15T01:26:47.182Z,17.10
2022-12-15T01:29:15.043Z,17.12
2022-12-15T01:31:44.073Z,17.11
2022-12-15T01:34:12.103Z,17.10
2022-12-15T01:36:40.029Z,17.10
2022-12-15T01:39:09.321Z,17.11
2022-12-15T01:41:36.271Z,17.12
2022-12-15T01:44:19.907Z,17.12
2022-12-15T01:46:48.287Z,17.14
2022-12-15T01:49:17.494Z,17.13
2022-12-15T01:51:47.408Z,17.13
2022-12-15T01:54:17.722Z,17.10
2022-12-15T01:56:46.522Z,17.10
2022-12-15T01:59:16.143Z,17.10
2022-12-15T02:01:44.175Z,17.09
2022-12-15T02:04:17.865Z,17.09
2022-12-15T02:06:45.778Z,17.07
2022-12-15T02:09:13.732Z,17.06
2022-12-15T02:11:51.312Z,17.05
2022-12-15T02:14:23.270Z,17.03
2022-12-15T02:16:58.900Z,17.04
2022-12-15T02:19:41.870Z,17.04
2022-12-15T02:22:17.253Z,17.06
2022-12-15T02:25:03.901Z,17.04
2022-12-15T02:27:52.804Z,17.01
2022-12-15T02:30:35.496Z,17.01
2022-12-15T02:33:09.995Z,17.04
2022-12-15T02:35:43.200Z,17.03
2022-12-15T02:38:11.284Z,17.02
2022-12-15T02:40:40.218Z,17.01
2022-12-15T02:43:08.219Z,17.00
2022-12-15T02:45:42.076Z,17.00
2022-12-15T02:48:13.766Z,17.02
2022-12-15T02:50:52.598Z,17.01
2022-12-15T02:53:33.779Z,16.99
2022-12-15T02:56:05.435Z,17.00
2022-12-15T02:58:36.478Z,17.06
2022-12-15T03:01:08.841Z,17.09
2022-12-15T03:03:36.994Z,17.06
2022-12-15T03:06:05.246Z,17.06
2022-12-15T03:08:33.487Z,17.04
2022-12-15T03:11:01.371Z,17.02
2022-12-15T03:13:29.750Z,17.01
2022-12-15T03:15:58.660Z,17.00
2022-12-15T03:18:28.197Z,17.00
2022-12-15T03:20:56.098Z,17.00
2022-12-15T03:23:24.030Z,17.00
2022-12-15T03:25:51.986Z,17.02
2022-12-15T03:28:19.901Z,17.04
2022-12-15T03:30:50.564Z,17.05
2022-12-15T03:33:18.793Z,17.05
2022-12-15T03:35:48.090Z,17.03
2022-12-15T03:38:16.044Z,17.03
2022-12-15T03:40:43.974Z,17.00
2022-12-15T03:43:11.923Z,16.98
2022-12-15T03:45:39.826Z,16.97
2022-12-15T03:48:07.847Z,16.97
2022-12-15T03:50:35.768Z,16.96
2022-12-15T03:53:05.232Z,16.94
2022-12-15T03:55:33.153Z,16.95
2022-12-15T03:58:01.053Z,16.94
2022-12-15T04:00:28.917Z,16.94
2022-12-15T04:02:56.961Z,16.93
2022-12-15T04:05:26.784Z,16.94
2022-12-15T04:07:54.703Z,16.93
2022-12-15T04:10:27.368Z,16.95
2022-12-15T04:12:59.761Z,16.95
2022-12-15T04:15:27.719Z,16.95
2022-12-15T04:17:55.697Z,16.92
2022-12-15T04:20:23.798Z,16.92
2022-12-15T04:22:52.909Z,16.91
2022-12-15T04:25:39.753Z,16.91
2022-12-15T04:28:26.844Z,16.91
2022-12-15T04:31:13.700Z,16.90
2022-12-15T04:34:00.004Z,16.92
2022-12-15T04:36:45.400Z,16.93
2022-12-15T04:39:30.848Z,16.91
2022-12-15T04:42:16.726Z,16.90
2022-12-15T04:45:03.388Z,16.88
2022-12-15T04:47:48.535Z,16.89
2022-12-15T04:50:34.022Z,16.90
2022-12-15T04:53:26.334Z,16.90
2022-12-15T04:56:17.923Z,16.90
2022-12-15T04:59:03.700Z,16.91
2022-12-15T05:01:50.556Z,16.89
2022-12-15T05:04:35.730Z,16.89
2022-12-15T05:07:20.993Z,16.87
2022-12-15T05:10:12.718Z,16.87
2022-12-15T05:13:00.313Z,16.88
2022-12-15T05:15:45.743Z,16.89
2022-12-15T05:18:32.761Z,16.89
2022-12-15T05:21:18.205Z,16.87
2022-12-15T05:24:03.382Z,16.85
2022-12-15T05:26:52.631Z,16.86
2022-12-15T05:29:38.623Z,16.83
2022-12-15T05:32:06.780Z,16.84
2022-12-15T05:34:37.004Z,16.91
2022-12-15T05:37:05.404Z,16.93
2022-12-15T05:39:33.360Z,16.96
2022-12-15T05:42:01.354Z,16.99
2022-12-15T05:44:29.299Z,17.01
2022-12-15T05:46:57.236Z,17.03
2022-12-15T05:49:25.148Z,17.04
2022-12-15T05:51:54.527Z,17.06
2022-12-15T05:54:22.381Z,17.10
2022-12-15T05:56:50.702Z,17.13
2022-12-15T05:59:19.125Z,17.14
2022-12-15T06:01:47.296Z,17.16
2022-12-15T06:04:15.297Z,17.16
2022-12-15T06:06:43.331Z,17.14
2022-12-15T06:09:12.744Z,17.15
2022-12-15T06:11:40.655Z,17.17
2022-12-15T06:14:08.575Z,17.18
2022-12-15T06:16:42.591Z,17.19
2022-12-15T06:19:12.284Z,17.23
2022-12-15T06:21:40.213Z,17.22
2022-12-15T06:24:09.123Z,17.18
2022-12-15T06:26:39.035Z,17.18
2022-12-15T06:29:08.650Z,17.17
2022-12-15T06:31:36.683Z,17.14
2022-12-15T06:34:04.985Z,17.11
2022-12-15T06:36:32.875Z,17.12
2022-12-15T06:39:01.548Z,17.15
2022-12-15T06:41:30.406Z,17.15
2022-12-15T06:43:59.975Z,17.17
2022-12-15T06:46:28.564Z,17.24
2022-12-15T06:48:56.528Z,17.29
2022-12-15T06:51:24.480Z,17.36
2022-12-15T06:53:54.088Z,17.32
2022-12-15T06:56:27.275Z,17.30
2022-12-15T06:59:01.813Z,17.34
2022-12-15T07:01:30.023Z,17.35
2022-12-15T07:04:00.036Z,17.34
2022-12-15T07:06:28.323Z,17.30
2022-12-15T07:08:56.735Z,17.26
2022-12-15T07:11:24.852Z,17.24
2022-12-15T07:13:52.895Z,17.22
2022-12-15T07:16:22.803Z,17.22
2022-12-15T07:18:50.982Z,17.22
2022-12-15T07:21:18.984Z,17.22
2022-12-15T07:23:54.699Z,17.22
2022-12-15T07:26:24.196Z,17.25
2022-12-15T07:28:52.952Z,17.27
2022-12-15T07:31:22.510Z,17.30
2022-12-15T07:33:52.232Z,17.40
2022-12-15T07:36:20.720Z,17.40
2022-12-15T07:38:50.391Z,17.38
2022-12-15T07:41:18.882Z,17.36
2022-12-15T07:43:49.786Z,17.36
2022-12-15T07:46:17.839Z,17.36
2022-12-15T07:48:50.479Z,17.36
2022-12-15T07:51:20.695Z,17.36
2022-12-15T07:53:49.557Z,17.36
2022-12-15T07:56:17.564Z,17.35
2022-12-15T07:58:45.443Z,17.35
2022-12-15T08:01:14.220Z,17.34
2022-12-15T08:03:42.185Z,17.34
2022-12-15T08:06:12.327Z,17.35
2022-12-15T08:08:40.595Z,17.35
2022-12-15T08:11:08.562Z,17.32
2022-12-15T08:16:24.414Z,17.30
2022-12-15T08:18:52.418Z,17.30
2022-12-15T08:21:21.752Z,17.32
2022-12-15T08:23:49.672Z,17.31
2022-12-15T08:26:18.395Z,17.34
2022-12-15T08:28:46.502Z,17.34
2022-12-15T08:31:15.699Z,17.33
2022-12-15T08:33:43.714Z,17.31
2022-12-15T08:36:12.937Z,17.31
2022-12-15T08:38:42.410Z,17.34
2022-12-15T08:41:11.141Z,17.36
2022-12-15T08:43:47.224Z,17.40
2022-12-15T08:46:16.874Z,17.42
2022-12-15T08:48:45.013Z,17.43
2022-12-15T08:51:13.090Z,17.44
2022-12-15T08:53:42.543Z,17.45
2022-12-15T08:56:12.210Z,17.47
2022-12-15T08:58:40.346Z,17.50
2022-12-15T09:01:10.011Z,17.52
2022-12-15T09:03:38.012Z,17.56
2022-12-15T09:06:06.243Z,17.53
2022-12-15T09:08:34.217Z,17.52
2022-12-15T09:11:05.592Z,17.53
2022-12-15T09:13:33.932Z,17.55
2022-12-15T09:16:11.138Z,17.55
2022-12-15T09:18:39.558Z,17.54
2022-12-15T09:21:08.339Z,17.54
2022-12-15T09:23:37.023Z,17.55
2022-12-15T09:26:07.683Z,17.54
2022-12-15T09:28:35.646Z,17.54
2022-12-15T09:31:06.802Z,17.54
2022-12-15T09:33:35.178Z,17.54
2022-12-15T09:36:03.622Z,17.55
2022-12-15T09:38:31.655Z,17.57
2022-12-15T09:40:59.479Z,17.59
2022-12-15T09:43:40.097Z,17.61
2022-12-15T09:46:25.295Z,17.66
2022-12-15T09:48:53.305Z,17.69
2022-12-15T09:51:31.203Z,17.72
2022-12-15T09:53:59.641Z,17.72
2022-12-15T09:56:40.893Z,17.73
2022-12-15T09:59:18.515Z,17.77
2022-12-15T10:01:48.090Z,17.81
2022-12-15T10:04:18.106Z,17.80
2022-12-15T10:06:50.651Z,17.81
2022-12-15T10:09:19.784Z,17.83
2022-12-15T10:11:50.526Z,17.85
2022-12-15T10:14:25.971Z,17.86
2022-12-15T10:17:02.427Z,17.86
2022-12-15T10:19:34.856Z,17.87
2022-12-15T10:22:02.781Z,17.91
2022-12-15T10:25:07.796Z,17.94
2022-12-15T10:27:30.259Z,17.95
2022-12-15T10:30:02.322Z,17.96
2022-12-15T10:32:39.344Z,17.96
2022-12-15T10:35:15.448Z,17.99
2022-12-15T10:37:43.938Z,18.00
2022-12-15T10:40:16.357Z,18.00
2022-12-15T10:42:47.457Z,18.01
2022-12-15T10:45:33.419Z,18.02
2022-12-15T10:48:02.619Z,18.03
2022-12-15T10:50:30.764Z,18.01
2022-12-15T10:52:58.807Z,18.01
2022-12-15T10:55:38.005Z,18.02
2022-12-15T10:58:14.274Z,18.02
2022-12-15T11:00:43.509Z,18.02
2022-12-15T11:03:23.046Z,18.03
2022-12-15T11:05:54.406Z,18.07
2022-12-15T11:08:22.655Z,18.12
2022-12-15T11:11:08.986Z,18.17
2022-12-15T11:13:37.256Z,18.21
2022-12-15T11:16:15.957Z,18.24
2022-12-15T11:18:45.209Z,18.26
2022-12-15T11:21:14.024Z,18.29
2022-12-15T11:23:56.235Z,18.32
2022-12-15T11:26:30.374Z,18.30
2022-12-15T11:29:00.908Z,18.29
2022-12-15T11:31:33.400Z,18.31
2022-12-15T11:34:01.287Z,18.31
2022-12-15T11:36:51.146Z,18.32
2022-12-15T11:39:22.947Z,18.35
2022-12-15T11:41:54.773Z,18.33
2022-12-15T11:44:40.235Z,18.33
2022-12-15T11:47:13.289Z,18.35
2022-12-15T11:50:16.295Z,18.37
2022-12-15T11:53:22.421Z,18.38
2022-12-15T11:55:53.333Z,18.36
2022-12-15T11:58:37.301Z,18.39
2022-12-15T12:01:09.955Z,18.41
2022-12-15T12:03:42.460Z,18.42
2022-12-15T12:06:13.050Z,18.43
2022-12-15T12:08:55.046Z,18.44
2022-12-15T12:11:25.164Z,18.47
2022-12-15T12:14:09.671Z,18.48
2022-12-15T12:16:41.545Z,18.51
2022-12-15T12:19:12.985Z,18.49
2022-12-15T12:21:41.843Z,18.47
2022-12-15T12:24:13.472Z,18.45
2022-12-15T12:26:42.462Z,18.42
2022-12-15T12:29:14.208Z,18.43
2022-12-15T12:31:45.067Z,18.41
2022-12-15T12:34:17.047Z,18.43
2022-12-15T12:36:45.158Z,18.43
2022-12-15T12:39:19.018Z,18.40
2022-12-15T12:41:48.809Z,18.40
2022-12-15T12:44:20.460Z,18.39
2022-12-15T12:46:49.097Z,18.40
2022-12-15T12:49:26.693Z,18.42
2022-12-15T12:51:55.368Z,18.45
2022-12-15T12:54:41.430Z,18.48
2022-12-15T12:57:38.476Z,18.49
2022-12-15T13:00:21.438Z,18.49
2022-12-15T13:03:12.367Z,18.52
2022-12-15T13:05:41.950Z,18.54
2022-12-15T13:08:40.439Z,18.56
2022-12-15T13:11:46.434Z,18.57
2022-12-15T13:14:24.125Z,18.58
2022-12-15T13:17:24.970Z,18.60
2022-12-15T13:20:26.863Z,18.61
2022-12-15T13:22:57.453Z,18.65
2022-12-15T13:25:38.634Z,18.66
2022-12-15T13:28:27.140Z,18.66
2022-12-15T13:31:43.951Z,18.68
2022-12-15T13:34:25.476Z,18.67
2022-12-15T13:36:55.701Z,18.64
2022-12-15T13:39:58.750Z,18.60
2022-12-15T13:42:53.068Z,18.58
2022-12-15T13:45:45.350Z,18.57
2022-12-15T13:48:33.526Z,18.53
2022-12-15T13:51:07.578Z,18.54
2022-12-15T13:53:40.136Z,18.51
2022-12-15T13:56:20.703Z,18.48
2022-12-15T13:58:57.685Z,18.47
2022-12-15T14:01:32.234Z,18.46
2022-12-15T14:04:05.269Z,18.45
2022-12-15T14:06:36.628Z,18.46
2022-12-15T14:09:05.079Z,18.44
2022-12-15T14:11:52.436Z,18.44
2022-12-15T14:14:23.446Z,18.43
2022-12-15T14:16:59.556Z,18.41
2022-12-15T14:19:29.932Z,18.40
2022-12-15T14:22:01.336Z,18.37
2022-12-15T14:24:41.174Z,18.35
2022-12-15T14:27:11.159Z,18.34
2022-12-15T14:29:39.079Z,18.33
2022-12-15T14:32:07.042Z,18.32
2022-12-15T14:34:37.010Z,18.30
2022-12-15T14:37:07.704Z,18.29
2022-12-15T14:39:37.415Z,18.26
2022-12-15T14:42:05.415Z,18.24
2022-12-15T14:44:38.326Z,18.24
2022-12-15T14:47:08.402Z,18.24
2022-12-15T14:49:40.028Z,18.23
2022-12-15T14:52:08.195Z,18.21
2022-12-15T14:54:37.025Z,18.19
2022-12-15T14:57:13.745Z,18.18
2022-12-15T14:59:43.758Z,18.17
2022-12-15T15:02:13.842Z,18.15
2022-12-15T15:04:42.255Z,18.15
2022-12-15T15:07:17.624Z,18.14
2022-12-15T15:09:45.995Z,18.14
2022-12-15T15:12:18.333Z,18.14
2022-12-15T15:14:48.697Z,18.13
2022-12-15T15:17:26.589Z,18.13
2022-12-15T15:19:55.635Z,18.12
2022-12-15T15:22:32.307Z,18.11
2022-12-15T15:25:00.575Z,18.11
2022-12-15T15:27:33.927Z,18.08
2022-12-15T15:30:17.739Z,18.09
2022-12-15T15:32:56.248Z,18.08
2022-12-15T15:35:25.082Z,18.06
2022-12-15T15:37:53.316Z,18.05
2022-12-15T15:40:21.223Z,18.03
2022-12-15T15:42:49.329Z,18.05
2022-12-15T15:45:18.668Z,18.05
2022-12-15T15:47:48.229Z,18.04
2022-12-15T15:50:17.526Z,18.04
2022-12-15T15:52:45.378Z,18.04
2022-12-15T15:55:16.970Z,18.03
2022-12-15T15:57:44.845Z,18.03
2022-12-15T16:00:19.691Z,18.03
2022-12-15T16:02:47.700Z,18.04
2022-12-15T16:05:15.950Z,18.03
2022-12-15T16:07:43.904Z,18.03
2022-12-15T16:10:14.505Z,18.04
2022-12-15T16:12:43.585Z,18.05
2022-12-15T16:15:19.971Z,18.04
2022-12-15T16:17:48.174Z,18.06
2022-12-15T16:20:17.084Z,18.07
2022-12-15T16:22:46.509Z,18.07
2022-12-15T16:25:15.505Z,18.08
2022-12-15T16:27:43.390Z,18.08
2022-12-15T16:30:21.317Z,18.08
2022-12-15T16:32:49.219Z,18.08
2022-12-15T16:35:17.785Z,18.08
2022-12-15T16:37:47.420Z,18.08
2022-12-15T16:40:17.522Z,18.08
2022-12-15T16:42:46.368Z,18.08
2022-12-15T16:45:16.501Z,18.07
2022-12-15T16:47:46.078Z,18.06
2022-12-15T16:50:15.295Z,18.04
2022-12-15T16:52:43.575Z,18.03
2022-12-15T16:55:21.089Z,18.02
2022-12-15T16:57:49.062Z,18.01
2022-12-15T17:00:19.126Z,18.00
2022-12-15T17:02:48.785Z,17.98
2022-12-15T17:05:16.897Z,17.98
2022-12-15T17:07:45.084Z,17.99
2022-12-15T17:10:20.491Z,17.99
2022-12-15T17:12:48.547Z,18.01
2022-12-15T17:15:21.083Z,18.00
2022-12-15T17:17:50.410Z,18.01
2022-12-15T17:20:30.684Z,18.01
2022-12-15T17:23:00.569Z,18.03
2022-12-15T17:26:09.267Z,18.02
2022-12-15T17:28:21.895Z,18.02
2022-12-15T17:30:50.280Z,18.00
2022-12-15T17:33:23.514Z,18.00
2022-12-15T17:35:52.554Z,17.99
2022-12-15T17:38:21.262Z,17.99
2022-12-15T17:40:49.410Z,17.97
2022-12-15T17:43:18.401Z,17.97
2022-12-15T17:45:46.429Z,18.00
2022-12-15T17:48:14.359Z,17.99
2022-12-15T17:50:44.953Z,18.00
2022-12-15T17:53:12.954Z,18.00
2022-12-15T17:55:40.843Z,18.00
2022-12-15T17:58:16.440Z,17.99
2022-12-15T18:00:49.072Z,17.99
2022-12-15T18:03:17.714Z,17.96
2022-12-15T18:05:47.218Z,17.97
2022-12-15T18:08:16.240Z,17.98
2022-12-15T18:10:44.138Z,17.96
2022-12-15T18:13:18.216Z,17.96
2022-12-15T18:15:46.677Z,17.98
2022-12-15T18:18:14.705Z,17.99
2022-12-15T18:20:42.597Z,17.99
2022-12-15T18:23:15.321Z,17.98
2022-12-15T18:25:43.408Z,17.96
2022-12-15T18:28:19.756Z,17.99
2022-12-15T18:30:47.932Z,17.99
2022-12-15T18:33:15.808Z,18.00
2022-12-15T18:35:44.644Z,17.98
2022-12-15T18:38:18.044Z,18.02
2022-12-15T18:40:46.842Z,18.04
2022-12-15T18:43:15.564Z,18.05
2022-12-15T18:45:43.480Z,18.06
2022-12-15T18:48:16.986Z,18.04
2022-12-15T18:50:44.888Z,18.04
2022-12-15T18:53:19.314Z,18.06
2022-12-15T18:55:47.367Z,18.07
2022-12-15T18:58:25.552Z,18.07
2022-12-15T19:00:53.451Z,18.09
2022-12-15T19:03:21.734Z,18.08
2022-12-15T19:05:49.881Z,18.07
2022-12-15T19:08:20.295Z,18.09
2022-12-15T19:10:51.071Z,18.08
2022-12-15T19:13:19.641Z,18.07
2022-12-15T19:15:47.651Z,18.05
2022-12-15T19:18:33.347Z,18.05
2022-12-15T19:21:19.090Z,18.03
2022-12-15T19:23:48.511Z,18.02
2022-12-15T19:26:16.390Z,18.02
2022-12-15T19:28:44.324Z,18.02
2022-12-15T19:31:12.204Z,18.02
2022-12-15T19:33:40.122Z,18.07
2022-12-15T19:36:11.434Z,18.08
2022-12-15T19:38:39.351Z,18.06
2022-12-15T19:41:09.911Z,18.04
2022-12-15T19:43:38.296Z,18.02
2022-12-15T19:46:06.583Z,18.01
2022-12-15T19:48:34.597Z,18.02
2022-12-15T19:51:02.457Z,18.02
2022-12-15T19:53:30.685Z,18.02
2022-12-15T19:56:01.322Z,18.01
2022-12-15T19:58:31.680Z,18.01
2022-12-15T20:01:00.437Z,18.01
2022-12-15T20:03:29.044Z,17.99
2022-12-15T20:05:57.612Z,18.00
2022-12-15T20:08:26.711Z,18.00
2022-12-15T20:10:55.011Z,17.99
2022-12-15T20:13:23.096Z,17.99
2022-12-15T20:15:52.487Z,17.99
2022-12-15T20:18:20.440Z,17.98
2022-12-15T20:20:49.010Z,17.95
2022-12-15T20:23:18.821Z,17.98
2022-12-15T20:25:47.288Z,17.98
2022-12-15T20:28:17.694Z,17.99
2022-12-15T20:30:45.952Z,17.99
2022-12-15T20:33:15.293Z,18.00
2022-12-15T20:35:43.359Z,18.01
2022-12-15T20:38:22.527Z,18.04
2022-12-15T20:40:50.433Z,18.05
2022-12-15T20:43:20.420Z,18.06
2022-12-15T20:45:51.957Z,18.06
2022-12-15T20:48:23.931Z,18.06
2022-12-15T20:50:52.808Z,18.05
2022-12-15T20:53:21.721Z,18.05
2022-12-15T20:55:49.782Z,18.06
2022-12-15T20:58:18.020Z,18.08
2022-12-15T21:00:46.180Z,18.09
2022-12-15T21:03:23.927Z,18.09
2022-12-15T21:05:52.792Z,18.13
2022-12-15T21:08:24.792Z,18.14
2022-12-15T21:10:53.355Z,18.16
2022-12-15T21:13:24.021Z,18.15
2022-12-15T21:15:51.944Z,18.13
2022-12-15T21:19:03.503Z,18.13
2022-12-15T21:21:13.485Z,18.10
2022-12-15T21:23:42.966Z,18.07
2022-12-15T21:26:11.188Z,18.08
2022-12-15T21:28:39.106Z,18.07
2022-12-15T21:31:07.169Z,18.07
2022-12-15T21:33:35.086Z,18.06
2022-12-15T21:36:03.000Z,18.05
2022-12-15T21:38:33.809Z,18.04
2022-12-15T21:41:02.973Z,18.03
2022-12-15T21:43:32.341Z,18.02
2022-12-15T21:46:00.361Z,18.01
2022-12-15T21:48:45.871Z,17.99
2022-12-15T21:51:15.042Z,18.00
2022-12-15T21:53:44.332Z,18.00
2022-12-15T21:56:15.998Z,17.99
2022-12-15T21:58:43.907Z,17.98
2022-12-15T22:01:15.680Z,17.98
2022-12-15T22:03:44.890Z,17.99
2022-12-15T22:06:17.780Z,17.98
2022-12-15T22:08:47.082Z,17.96
2022-12-15T22:11:20.426Z,17.95
2022-12-15T22:13:48.689Z,17.95
2022-12-15T22:16:16.830Z,17.94
2022-12-15T22:18:44.812Z,17.94
2022-12-15T22:21:13.326Z,17.92
2022-12-15T22:23:41.241Z,17.91
2022-12-15T22:26:15.727Z,17.93
2022-12-15T22:28:43.579Z,17.93
2022-12-15T22:31:11.651Z,17.92
2022-12-15T22:33:39.537Z,17.92
2022-12-15T22:36:07.958Z,17.90
2022-12-15T22:38:36.163Z,17.91
2022-12-15T22:41:04.440Z,17.91
2022-12-15T22:43:35.983Z,17.91
2022-12-15T22:46:04.092Z,17.90
2022-12-15T22:48:34.511Z,17.91
2022-12-15T22:51:02.585Z,17.90
2022-12-15T22:53:31.657Z,17.90
2022-12-15T22:55:59.554Z,17.90
2022-12-15T22:58:28.868Z,17.88
2022-12-15T23:00:58.628Z,17.89
2022-12-15T23:03:27.670Z,17.89
2022-12-15T23:05:55.520Z,17.89
2022-12-15T23:08:23.494Z,17.89
2022-12-15T23:11:08.901Z,17.89
2022-12-15T23:13:36.924Z,17.90
2022-12-15T23:16:22.178Z,17.90
2022-12-15T23:18:50.552Z,17.89
2022-12-15T23:21:19.795Z,17.88
2022-12-15T23:23:47.671Z,17.89
2022-12-15T23:26:16.344Z,17.90
2022-12-15T23:28:44.361Z,17.90
2022-12-15T23:31:13.683Z,17.89
2022-12-15T23:33:42.196Z,17.90
2022-12-15T23:36:10.811Z,17.92
2022-12-15T23:38:38.708Z,17.93
2022-12-15T23:41:06.916Z,17.93
2022-12-15T23:43:36.177Z,17.94
2022-12-15T23:46:05.289Z,17.94
2022-12-15T23:48:35.614Z,17.90
2022-12-15T23:51:07.167Z,17.89
2022-12-15T23:53:36.421Z,17.90
2022-12-15T23:56:09.555Z,17.88
2022-12-15T23:58:37.832Z,17.88
